sensor_id;sensor_type;location;lat;lon;timestamp;temperature;humidity
7232;DHT22;3657;49.630;11.018;2022-09-28T00:01:26;9.50;99.90
7232;DHT22;3657;49.630;11.018;2022-09-28T00:03:55;9.50;99.90
7232;DHT22;3657;49.630;11.018;2022-09-28T00:06:25;9.50;99.90
7232;DHT22;3657;49.630;11.018;2022-09-28T00:08:52;9.60;99.90
7232;DHT22;3657;49.630;11.018;2022-09-28T00:11:21;9.50;99.90
7232;DHT22;3657;49.630;11.018;2022-09-28T00:13:50;9.50;99.90
7232;DHT22;3657;49.630;11.018;2022-09-28T00:16:19;9.40;99.90
7232;DHT22;3657;49.630;11.018;2022-09-28T00:18:46;9.40;99.90
7232;DHT22;3657;49.630;11.018;2022-09-28T00:21:18;9.40;99.90
7232;DHT22;3657;49.630;11.018;2022-09-28T00:23:46;9.30;99.90
7232;DHT22;3657;49.630;11.018;2022-09-28T00:26:32;9.00;99.90
7232;DHT22;3657;49.630;11.018;2022-09-28T00:29:00;8.90;99.90
7232;DHT22;3657;49.630;11.018;2022-09-28T00:31:29;8.90;99.90
7232;DHT22;3657;49.630;11.018;2022-09-28T00:33:57;9.00;99.90
7232;DHT22;3657;49.630;11.018;2022-09-28T00:36:27;9.00;99.90
7232;DHT22;3657;49.630;11.018;2022-09-28T00:38:54;8.90;99.90
7232;DHT22;3657;49.630;11.018;2022-09-28T00:41:21;9.00;99.90
7232;DHT22;3657;49.630;11.018;2022-09-28T00:43:48;8.90;99.90
7232;DHT22;3657;49.630;11.018;2022-09-28T00:46:17;8.90;99.90
7232;DHT22;3657;49.630;11.018;2022-09-28T00:48:49;8.90;99.90
7232;DHT22;3657;49.630;11.018;2022-09-28T00:51:18;9.00;99.90
7232;DHT22;3657;49.630;11.018;2022-09-28T00:53:47;8.90;99.90
7232;DHT22;3657;49.630;11.018;2022-09-28T00:56:16;8.90;99.90
7232;DHT22;3657;49.630;11.018;2022-09-28T00:58:46;8.70;99.90
7232;DHT22;3657;49.630;11.018;2022-09-28T01:01:13;8.60;99.90
7232;DHT22;3657;49.630;11.018;2022-09-28T01:03:40;8.50;99.90
7232;DHT22;3657;49.630;11.018;2022-09-28T01:06:11;8.40;99.90
7232;DHT22;3657;49.630;11.018;2022-09-28T01:08:41;8.30;99.90
7232;DHT22;3657;49.630;11.018;2022-09-28T01:11:11;8.30;99.90
7232;DHT22;3657;49.630;11.018;2022-09-28T01:13:39;8.20;99.90
7232;DHT22;3657;49.630;11.018;2022-09-28T01:16:13;8.20;99.90
7232;DHT22;3657;49.630;11.018;2022-09-28T01:18:51;8.20;99.90
7232;DHT22;3657;49.630;11.018;2022-09-28T01:21:23;8.10;99.90
7232;DHT22;3657;49.630;11.018;2022-09-28T01:24:24;8.10;99.90
7232;DHT22;3657;49.630;11.018;2022-09-28T01:27:06;8.10;99.90
7232;DHT22;3657;49.630;11.018;2022-09-28T01:29:44;8.10;99.90
7232;DHT22;3657;49.630;11.018;2022-09-28T01:32:21;8.10;99.90
7232;DHT22;3657;49.630;11.018;2022-09-28T01:34:55;8.10;99.90
7232;DHT22;3657;49.630;11.018;2022-09-28T01:37:28;8.10;99.90
7232;DHT22;3657;49.630;11.018;2022-09-28T01:39:56;8.10;99.90
7232;DHT22;3657;49.630;11.018;2022-09-28T01:42:29;8.20;99.90
7232;DHT22;3657;49.630;11.018;2022-09-28T01:45:03;8.10;99.90
7232;DHT22;3657;49.630;11.018;2022-09-28T01:47:34;8.10;99.90
7232;DHT22;3657;49.630;11.018;2022-09-28T01:50:08;8.00;99.90
7232;DHT22;3657;49.630;11.018;2022-09-28T01:52:40;8.10;99.90
7232;DHT22;3657;49.630;11.018;2022-09-28T01:55:12;8.20;99.90
7232;DHT22;3657;49.630;11.018;2022-09-28T01:57:46;8.20;99.90
7232;DHT22;3657;49.630;11.018;2022-09-28T02:00:15;8.20;99.90
7232;DHT22;3657;49.630;11.018;2022-09-28T02:02:46;8.20;99.90
7232;DHT22;3657;49.630;11.018;2022-09-28T02:05:16;8.20;99.90
7232;DHT22;3657;49.630;11.018;2022-09-28T02:07:46;8.10;99.90
7232;DHT22;3657;49.630;11.018;2022-09-28T02:10:17;8.00;99.90
7232;DHT22;3657;49.630;11.018;2022-09-28T02:12:49;8.00;99.90
7232;DHT22;3657;49.630;11.018;2022-09-28T02:15:19;8.10;99.90
7232;DHT22;3657;49.630;11.018;2022-09-28T02:17:48;8.00;99.90
7232;DHT22;3657;49.630;11.018;2022-09-28T02:20:16;8.00;99.90
7232;DHT22;3657;49.630;11.018;2022-09-28T02:22:48;8.00;99.90
7232;DHT22;3657;49.630;11.018;2022-09-28T02:25:22;7.90;99.90
7232;DHT22;3657;49.630;11.018;2022-09-28T02:27:55;7.90;99.90
7232;DHT22;3657;49.630;11.018;2022-09-28T02:30:23;7.80;99.90
7232;DHT22;3657;49.630;11.018;2022-09-28T02:32:53;7.80;99.90
7232;DHT22;3657;49.630;11.018;2022-09-28T02:35:21;7.80;99.90
7232;DHT22;3657;49.630;11.018;2022-09-28T02:37:48;7.80;99.90
7232;DHT22;3657;49.630;11.018;2022-09-28T02:40:17;7.90;99.90
7232;DHT22;3657;49.630;11.018;2022-09-28T02:42:51;7.80;99.90
7232;DHT22;3657;49.630;11.018;2022-09-28T02:45:29;7.80;99.90
7232;DHT22;3657;49.630;11.018;2022-09-28T02:48:07;7.90;99.90
7232;DHT22;3657;49.630;11.018;2022-09-28T02:50:43;8.00;99.90
7232;DHT22;3657;49.630;11.018;2022-09-28T02:53:23;8.10;99.90
7232;DHT22;3657;49.630;11.018;2022-09-28T02:56:04;8.00;99.90
7232;DHT22;3657;49.630;11.018;2022-09-28T02:58:44;7.90;99.90
7232;DHT22;3657;49.630;11.018;2022-09-28T03:01:22;8.00;99.90
7232;DHT22;3657;49.630;11.018;2022-09-28T03:03:54;8.00;99.90
7232;DHT22;3657;49.630;11.018;2022-09-28T03:06:28;8.00;99.90
7232;DHT22;3657;49.630;11.018;2022-09-28T03:09:00;8.10;99.90
7232;DHT22;3657;49.630;11.018;2022-09-28T03:11:32;8.10;99.90
7232;DHT22;3657;49.630;11.018;2022-09-28T03:14:00;8.20;99.90
7232;DHT22;3657;49.630;11.018;2022-09-28T03:16:29;8.20;99.90
7232;DHT22;3657;49.630;11.018;2022-09-28T03:18:56;8.30;99.90
7232;DHT22;3657;49.630;11.018;2022-09-28T03:21:23;8.30;99.90
7232;DHT22;3657;49.630;11.018;2022-09-28T03:23:50;8.20;99.90
7232;DHT22;3657;49.630;11.018;2022-09-28T03:26:16;8.20;99.90
7232;DHT22;3657;49.630;11.018;2022-09-28T03:28:44;8.10;99.90
7232;DHT22;3657;49.630;11.018;2022-09-28T03:31:10;8.00;99.90
7232;DHT22;3657;49.630;11.018;2022-09-28T03:33:38;7.90;99.90
7232;DHT22;3657;49.630;11.018;2022-09-28T03:36:05;7.80;99.90
7232;DHT22;3657;49.630;11.018;2022-09-28T03:38:33;7.80;99.90
7232;DHT22;3657;49.630;11.018;2022-09-28T03:41:00;7.70;99.90
7232;DHT22;3657;49.630;11.018;2022-09-28T03:43:29;7.70;99.90
7232;DHT22;3657;49.630;11.018;2022-09-28T03:45:57;7.60;99.90
7232;DHT22;3657;49.630;11.018;2022-09-28T03:48:26;7.70;99.90
7232;DHT22;3657;49.630;11.018;2022-09-28T03:50:55;7.60;99.90
7232;DHT22;3657;49.630;11.018;2022-09-28T03:53:23;7.70;99.90
7232;DHT22;3657;49.630;11.018;2022-09-28T03:55:50;7.70;99.90
7232;DHT22;3657;49.630;11.018;2022-09-28T03:58:17;7.70;99.90
7232;DHT22;3657;49.630;11.018;2022-09-28T04:00:44;7.70;99.90
7232;DHT22;3657;49.630;11.018;2022-09-28T04:03:11;7.70;99.90
7232;DHT22;3657;49.630;11.018;2022-09-28T04:05:37;7.70;99.90
7232;DHT22;3657;49.630;11.018;2022-09-28T04:08:05;7.70;99.90
7232;DHT22;3657;49.630;11.018;2022-09-28T04:10:32;7.70;99.90
7232;DHT22;3657;49.630;11.018;2022-09-28T04:12:59;7.80;99.90
7232;DHT22;3657;49.630;11.018;2022-09-28T04:15:27;7.70;99.90
7232;DHT22;3657;49.630;11.018;2022-09-28T04:17:53;7.70;99.90
7232;DHT22;3657;49.630;11.018;2022-09-28T04:20:20;7.70;99.90
7232;DHT22;3657;49.630;11.018;2022-09-28T04:22:47;7.70;99.90
7232;DHT22;3657;49.630;11.018;2022-09-28T04:25:15;7.80;99.90
7232;DHT22;3657;49.630;11.018;2022-09-28T04:27:42;7.90;99.90
7232;DHT22;3657;49.630;11.018;2022-09-28T04:30:26;8.10;99.90
7232;DHT22;3657;49.630;11.018;2022-09-28T04:32:53;8.20;99.90
7232;DHT22;3657;49.630;11.018;2022-09-28T04:35:19;8.20;99.90
7232;DHT22;3657;49.630;11.018;2022-09-28T04:37:46;8.20;99.90
7232;DHT22;3657;49.630;11.018;2022-09-28T04:40:14;8.10;99.90
7232;DHT22;3657;49.630;11.018;2022-09-28T04:42:41;8.20;99.90
7232;DHT22;3657;49.630;11.018;2022-09-28T04:45:08;8.20;99.90
7232;DHT22;3657;49.630;11.018;2022-09-28T04:47:35;8.30;99.90
7232;DHT22;3657;49.630;11.018;2022-09-28T04:50:02;8.30;99.90
7232;DHT22;3657;49.630;11.018;2022-09-28T04:52:29;8.30;99.90
7232;DHT22;3657;49.630;11.018;2022-09-28T04:54:55;8.30;99.90
7232;DHT22;3657;49.630;11.018;2022-09-28T04:57:23;8.20;99.90
7232;DHT22;3657;49.630;11.018;2022-09-28T04:59:50;8.20;99.90
7232;DHT22;3657;49.630;11.018;2022-09-28T05:02:17;8.20;99.90
7232;DHT22;3657;49.630;11.018;2022-09-28T05:04:44;8.30;99.90
7232;DHT22;3657;49.630;11.018;2022-09-28T05:07:11;8.20;99.90
7232;DHT22;3657;49.630;11.018;2022-09-28T05:09:38;8.30;99.90
7232;DHT22;3657;49.630;11.018;2022-09-28T05:12:04;8.40;99.90
7232;DHT22;3657;49.630;11.018;2022-09-28T05:14:32;8.40;99.90
7232;DHT22;3657;49.630;11.018;2022-09-28T05:16:59;8.40;99.90
7232;DHT22;3657;49.630;11.018;2022-09-28T05:19:27;8.30;99.90
7232;DHT22;3657;49.630;11.018;2022-09-28T05:21:54;8.40;99.90
7232;DHT22;3657;49.630;11.018;2022-09-28T05:24:22;8.30;99.90
7232;DHT22;3657;49.630;11.018;2022-09-28T05:26:49;8.30;99.90
7232;DHT22;3657;49.630;11.018;2022-09-28T05:29:15;8.30;99.90
7232;DHT22;3657;49.630;11.018;2022-09-28T05:31:43;8.40;99.90
7232;DHT22;3657;49.630;11.018;2022-09-28T05:34:10;8.30;99.90
7232;DHT22;3657;49.630;11.018;2022-09-28T05:36:37;8.30;99.90
7232;DHT22;3657;49.630;11.018;2022-09-28T05:39:04;8.40;99.90
7232;DHT22;3657;49.630;11.018;2022-09-28T05:41:31;8.40;99.90
7232;DHT22;3657;49.630;11.018;2022-09-28T05:43:58;8.40;99.90
7232;DHT22;3657;49.630;11.018;2022-09-28T05:46:24;8.50;99.90
7232;DHT22;3657;49.630;11.018;2022-09-28T05:48:52;8.50;99.90
7232;DHT22;3657;49.630;11.018;2022-09-28T05:51:19;8.60;99.90
7232;DHT22;3657;49.630;11.018;2022-09-28T05:53:46;8.60;99.90
7232;DHT22;3657;49.630;11.018;2022-09-28T05:56:13;8.60;99.90
7232;DHT22;3657;49.630;11.018;2022-09-28T05:58:39;8.70;99.90
7232;DHT22;3657;49.630;11.018;2022-09-28T06:01:06;8.70;99.90
7232;DHT22;3657;49.630;11.018;2022-09-28T06:03:33;8.70;99.90
7232;DHT22;3657;49.630;11.018;2022-09-28T06:06:01;8.70;99.90
7232;DHT22;3657;49.630;11.018;2022-09-28T06:08:29;8.70;99.90
7232;DHT22;3657;49.630;11.018;2022-09-28T06:10:58;8.70;99.90
7232;DHT22;3657;49.630;11.018;2022-09-28T06:13:24;8.70;99.90
7232;DHT22;3657;49.630;11.018;2022-09-28T06:15:52;8.70;99.90
7232;DHT22;3657;49.630;11.018;2022-09-28T06:18:19;8.80;99.90
7232;DHT22;3657;49.630;11.018;2022-09-28T06:20:45;8.80;99.90
7232;DHT22;3657;49.630;11.018;2022-09-28T06:23:13;8.90;99.90
7232;DHT22;3657;49.630;11.018;2022-09-28T06:25:40;8.90;99.90
7232;DHT22;3657;49.630;11.018;2022-09-28T06:28:10;8.90;99.90
7232;DHT22;3657;49.630;11.018;2022-09-28T06:30:37;8.90;99.90
7232;DHT22;3657;49.630;11.018;2022-09-28T06:33:06;9.00;99.90
7232;DHT22;3657;49.630;11.018;2022-09-28T06:35:34;9.00;99.90
7232;DHT22;3657;49.630;11.018;2022-09-28T06:38:01;9.00;99.90
7232;DHT22;3657;49.630;11.018;2022-09-28T06:40:29;9.00;99.90
7232;DHT22;3657;49.630;11.018;2022-09-28T06:42:57;9.00;99.90
7232;DHT22;3657;49.630;11.018;2022-09-28T06:45:25;9.00;99.90
7232;DHT22;3657;49.630;11.018;2022-09-28T06:47:53;9.10;99.90
7232;DHT22;3657;49.630;11.018;2022-09-28T06:50:21;9.10;99.90
7232;DHT22;3657;49.630;11.018;2022-09-28T06:52:50;9.10;99.90
7232;DHT22;3657;49.630;11.018;2022-09-28T06:55:17;9.10;99.90
7232;DHT22;3657;49.630;11.018;2022-09-28T06:57:45;9.10;99.90
7232;DHT22;3657;49.630;11.018;2022-09-28T07:00:13;9.10;99.90
7232;DHT22;3657;49.630;11.018;2022-09-28T07:02:39;9.10;99.90
7232;DHT22;3657;49.630;11.018;2022-09-28T07:05:07;9.20;99.90
7232;DHT22;3657;49.630;11.018;2022-09-28T07:07:34;9.30;99.90
7232;DHT22;3657;49.630;11.018;2022-09-28T07:10:01;9.30;99.90
7232;DHT22;3657;49.630;11.018;2022-09-28T07:12:28;9.30;99.90
7232;DHT22;3657;49.630;11.018;2022-09-28T07:14:55;9.30;99.90
7232;DHT22;3657;49.630;11.018;2022-09-28T07:17:22;9.30;99.90
7232;DHT22;3657;49.630;11.018;2022-09-28T07:19:49;9.30;99.90
7232;DHT22;3657;49.630;11.018;2022-09-28T07:22:17;9.20;99.90
7232;DHT22;3657;49.630;11.018;2022-09-28T07:24:44;9.30;99.90
7232;DHT22;3657;49.630;11.018;2022-09-28T07:27:11;9.30;99.90
7232;DHT22;3657;49.630;11.018;2022-09-28T07:29:38;9.30;99.90
7232;DHT22;3657;49.630;11.018;2022-09-28T07:32:06;9.30;99.90
7232;DHT22;3657;49.630;11.018;2022-09-28T07:34:33;9.40;99.90
7232;DHT22;3657;49.630;11.018;2022-09-28T07:37:04;9.50;99.90
7232;DHT22;3657;49.630;11.018;2022-09-28T07:39:31;9.60;99.90
7232;DHT22;3657;49.630;11.018;2022-09-28T07:42:18;9.80;99.90
7232;DHT22;3657;49.630;11.018;2022-09-28T07:44:44;9.90;99.90
7232;DHT22;3657;49.630;11.018;2022-09-28T07:47:12;10.00;99.90
7232;DHT22;3657;49.630;11.018;2022-09-28T07:49:39;10.10;99.90
7232;DHT22;3657;49.630;11.018;2022-09-28T07:52:06;10.10;99.90
7232;DHT22;3657;49.630;11.018;2022-09-28T07:54:33;10.10;99.90
7232;DHT22;3657;49.630;11.018;2022-09-28T07:57:00;10.10;99.90
7232;DHT22;3657;49.630;11.018;2022-09-28T07:59:27;10.10;99.90
7232;DHT22;3657;49.630;11.018;2022-09-28T08:01:55;10.10;99.90
7232;DHT22;3657;49.630;11.018;2022-09-28T08:04:24;10.00;99.90
7232;DHT22;3657;49.630;11.018;2022-09-28T08:06:53;10.00;99.90
7232;DHT22;3657;49.630;11.018;2022-09-28T08:09:20;10.10;99.90
7232;DHT22;3657;49.630;11.018;2022-09-28T08:11:46;10.20;99.90
7232;DHT22;3657;49.630;11.018;2022-09-28T08:14:14;10.30;99.90
7232;DHT22;3657;49.630;11.018;2022-09-28T08:16:40;10.90;99.90
7232;DHT22;3657;49.630;11.018;2022-09-28T08:19:10;11.40;99.90
7232;DHT22;3657;49.630;11.018;2022-09-28T08:21:38;11.50;99.90
7232;DHT22;3657;49.630;11.018;2022-09-28T08:24:09;11.60;99.90
7232;DHT22;3657;49.630;11.018;2022-09-28T08:26:36;11.90;99.90
7232;DHT22;3657;49.630;11.018;2022-09-28T08:29:03;12.30;99.90
7232;DHT22;3657;49.630;11.018;2022-09-28T08:31:29;12.50;99.90
7232;DHT22;3657;49.630;11.018;2022-09-28T08:33:56;12.30;99.90
7232;DHT22;3657;49.630;11.018;2022-09-28T08:36:23;11.90;99.90
7232;DHT22;3657;49.630;11.018;2022-09-28T08:38:51;11.60;99.90
7232;DHT22;3657;49.630;11.018;2022-09-28T08:41:25;11.40;99.90
7232;DHT22;3657;49.630;11.018;2022-09-28T08:44:01;11.30;99.90
7232;DHT22;3657;49.630;11.018;2022-09-28T08:46:34;11.20;99.90
7232;DHT22;3657;49.630;11.018;2022-09-28T08:49:07;11.10;99.90
7232;DHT22;3657;49.630;11.018;2022-09-28T08:51:37;11.20;99.90
7232;DHT22;3657;49.630;11.018;2022-09-28T08:54:15;11.60;99.90
7232;DHT22;3657;49.630;11.018;2022-09-28T08:56:48;12.00;99.90
7232;DHT22;3657;49.630;11.018;2022-09-28T08:59:17;12.40;99.90
7232;DHT22;3657;49.630;11.018;2022-09-28T09:01:49;12.50;99.90
7232;DHT22;3657;49.630;11.018;2022-09-28T09:04:18;12.50;99.90
7232;DHT22;3657;49.630;11.018;2022-09-28T09:07:01;12.90;99.90
7232;DHT22;3657;49.630;11.018;2022-09-28T09:09:42;13.40;99.90
7232;DHT22;3657;49.630;11.018;2022-09-28T09:12:18;13.90;99.90
7232;DHT22;3657;49.630;11.018;2022-09-28T09:15:20;13.90;99.90
7232;DHT22;3657;49.630;11.018;2022-09-28T09:18:01;13.50;99.90
7232;DHT22;3657;49.630;11.018;2022-09-28T09:20:40;12.80;99.90
7232;DHT22;3657;49.630;11.018;2022-09-28T09:23:17;12.40;99.90
7232;DHT22;3657;49.630;11.018;2022-09-28T09:25:48;12.10;99.90
7232;DHT22;3657;49.630;11.018;2022-09-28T09:28:34;12.00;99.90
7232;DHT22;3657;49.630;11.018;2022-09-28T09:31:10;12.20;99.90
7232;DHT22;3657;49.630;11.018;2022-09-28T09:33:54;12.50;99.90
7232;DHT22;3657;49.630;11.018;2022-09-28T09:36:33;12.80;99.90
7232;DHT22;3657;49.630;11.018;2022-09-28T09:39:17;13.30;99.90
7232;DHT22;3657;49.630;11.018;2022-09-28T09:42:01;13.80;99.90
7232;DHT22;3657;49.630;11.018;2022-09-28T09:44:49;14.20;99.90
7232;DHT22;3657;49.630;11.018;2022-09-28T09:47:21;14.10;99.90
7232;DHT22;3657;49.630;11.018;2022-09-28T09:49:55;13.80;99.90
7232;DHT22;3657;49.630;11.018;2022-09-28T09:52:29;13.80;99.90
7232;DHT22;3657;49.630;11.018;2022-09-28T09:55:02;13.90;99.90
7232;DHT22;3657;49.630;11.018;2022-09-28T09:57:33;13.80;99.90
7232;DHT22;3657;49.630;11.018;2022-09-28T10:00:11;13.90;99.90
7232;DHT22;3657;49.630;11.018;2022-09-28T10:02:39;14.20;99.90
7232;DHT22;3657;49.630;11.018;2022-09-28T10:05:15;14.10;99.90
7232;DHT22;3657;49.630;11.018;2022-09-28T10:07:48;14.40;99.90
7232;DHT22;3657;49.630;11.018;2022-09-28T10:10:20;14.80;99.90
7232;DHT22;3657;49.630;11.018;2022-09-28T10:12:51;15.10;99.90
7232;DHT22;3657;49.630;11.018;2022-09-28T10:15:22;14.90;99.90
7232;DHT22;3657;49.630;11.018;2022-09-28T10:17:50;15.10;99.90
7232;DHT22;3657;49.630;11.018;2022-09-28T10:20:17;15.30;99.90
7232;DHT22;3657;49.630;11.018;2022-09-28T10:22:44;15.30;99.90
7232;DHT22;3657;49.630;11.018;2022-09-28T10:25:12;15.40;99.90
7232;DHT22;3657;49.630;11.018;2022-09-28T10:27:42;15.20;99.90
7232;DHT22;3657;49.630;11.018;2022-09-28T10:30:17;14.90;99.90
7232;DHT22;3657;49.630;11.018;2022-09-28T10:32:46;14.50;99.90
7232;DHT22;3657;49.630;11.018;2022-09-28T10:35:21;14.30;99.90
7232;DHT22;3657;49.630;11.018;2022-09-28T10:37:49;14.10;99.90
7232;DHT22;3657;49.630;11.018;2022-09-28T10:43:17;13.70;99.90
7232;DHT22;3657;49.630;11.018;2022-09-28T10:45:47;13.70;99.90
7232;DHT22;3657;49.630;11.018;2022-09-28T10:48:19;13.60;99.90
7232;DHT22;3657;49.630;11.018;2022-09-28T10:51:02;13.60;99.90
7232;DHT22;3657;49.630;11.018;2022-09-28T10:53:30;13.80;99.90
7232;DHT22;3657;49.630;11.018;2022-09-28T10:55:59;14.40;99.90
7232;DHT22;3657;49.630;11.018;2022-09-28T10:58:34;15.00;99.90
7232;DHT22;3657;49.630;11.018;2022-09-28T11:01:06;15.20;99.90
7232;DHT22;3657;49.630;11.018;2022-09-28T11:03:48;15.50;99.90
7232;DHT22;3657;49.630;11.018;2022-09-28T11:06:22;15.70;99.90
7232;DHT22;3657;49.630;11.018;2022-09-28T11:08:50;15.70;99.90
7232;DHT22;3657;49.630;11.018;2022-09-28T11:11:17;15.50;99.90
7232;DHT22;3657;49.630;11.018;2022-09-28T11:13:47;15.30;99.90
7232;DHT22;3657;49.630;11.018;2022-09-28T11:16:24;15.20;99.90
7232;DHT22;3657;49.630;11.018;2022-09-28T11:18:51;15.40;99.90
7232;DHT22;3657;49.630;11.018;2022-09-28T11:21:21;15.50;99.90
7232;DHT22;3657;49.630;11.018;2022-09-28T11:24:01;15.70;99.90
7232;DHT22;3657;49.630;11.018;2022-09-28T11:26:36;15.90;99.90
7232;DHT22;3657;49.630;11.018;2022-09-28T11:29:04;15.60;99.90
7232;DHT22;3657;49.630;11.018;2022-09-28T11:31:33;15.20;99.90
7232;DHT22;3657;49.630;11.018;2022-09-28T11:34:03;15.00;99.90
7232;DHT22;3657;49.630;11.018;2022-09-28T11:36:47;14.80;99.90
7232;DHT22;3657;49.630;11.018;2022-09-28T11:39:24;14.70;99.90
7232;DHT22;3657;49.630;11.018;2022-09-28T11:42:01;14.60;99.90
7232;DHT22;3657;49.630;11.018;2022-09-28T11:44:36;14.60;99.90
7232;DHT22;3657;49.630;11.018;2022-09-28T11:47:15;14.70;99.90
7232;DHT22;3657;49.630;11.018;2022-09-28T11:49:50;14.70;99.90
7232;DHT22;3657;49.630;11.018;2022-09-28T11:52:23;14.70;99.90
7232;DHT22;3657;49.630;11.018;2022-09-28T11:54:55;14.80;99.90
7232;DHT22;3657;49.630;11.018;2022-09-28T11:57:27;14.90;99.90
7232;DHT22;3657;49.630;11.018;2022-09-28T11:59:57;15.00;99.90
7232;DHT22;3657;49.630;11.018;2022-09-28T12:02:29;15.10;99.90
7232;DHT22;3657;49.630;11.018;2022-09-28T12:05:10;15.20;99.90
7232;DHT22;3657;49.630;11.018;2022-09-28T12:07:42;15.20;99.90
7232;DHT22;3657;49.630;11.018;2022-09-28T12:10:13;15.20;99.90
7232;DHT22;3657;49.630;11.018;2022-09-28T12:12:47;15.20;99.90
7232;DHT22;3657;49.630;11.018;2022-09-28T12:15:18;15.20;99.90
7232;DHT22;3657;49.630;11.018;2022-09-28T12:17:50;15.30;99.90
7232;DHT22;3657;49.630;11.018;2022-09-28T12:20:22;15.40;99.90
7232;DHT22;3657;49.630;11.018;2022-09-28T12:23:02;15.40;99.90
7232;DHT22;3657;49.630;11.018;2022-09-28T12:25:36;15.40;99.90
7232;DHT22;3657;49.630;11.018;2022-09-28T12:28:07;15.40;99.90
7232;DHT22;3657;49.630;11.018;2022-09-28T12:30:38;15.40;99.90
7232;DHT22;3657;49.630;11.018;2022-09-28T12:33:11;15.30;99.90
7232;DHT22;3657;49.630;11.018;2022-09-28T12:35:57;15.20;99.90
7232;DHT22;3657;49.630;11.018;2022-09-28T12:38:37;15.30;99.90
7232;DHT22;3657;49.630;11.018;2022-09-28T12:41:18;15.40;99.90
7232;DHT22;3657;49.630;11.018;2022-09-28T12:44:10;15.40;99.90
7232;DHT22;3657;49.630;11.018;2022-09-28T12:46:51;15.50;99.90
7232;DHT22;3657;49.630;11.018;2022-09-28T12:49:31;15.60;99.90
7232;DHT22;3657;49.630;11.018;2022-09-28T12:52:07;15.60;99.90
7232;DHT22;3657;49.630;11.018;2022-09-28T12:54:53;15.70;99.90
7232;DHT22;3657;49.630;11.018;2022-09-28T12:57:39;15.80;99.90
7232;DHT22;3657;49.630;11.018;2022-09-28T13:00:10;15.80;99.90
7232;DHT22;3657;49.630;11.018;2022-09-28T13:03:02;15.90;99.90
7232;DHT22;3657;49.630;11.018;2022-09-28T13:05:57;15.90;99.90
7232;DHT22;3657;49.630;11.018;2022-09-28T13:08:34;16.00;99.90
7232;DHT22;3657;49.630;11.018;2022-09-28T13:11:13;16.10;99.90
7232;DHT22;3657;49.630;11.018;2022-09-28T13:13:46;16.10;99.90
7232;DHT22;3657;49.630;11.018;2022-09-28T13:16:22;16.20;99.90
7232;DHT22;3657;49.630;11.018;2022-09-28T13:18:59;16.10;99.90
7232;DHT22;3657;49.630;11.018;2022-09-28T13:21:35;16.10;99.90
7232;DHT22;3657;49.630;11.018;2022-09-28T13:24:05;16.10;99.90
7232;DHT22;3657;49.630;11.018;2022-09-28T13:26:36;16.00;99.90
7232;DHT22;3657;49.630;11.018;2022-09-28T13:29:10;16.00;99.90
7232;DHT22;3657;49.630;11.018;2022-09-28T13:31:42;16.00;99.90
7232;DHT22;3657;49.630;11.018;2022-09-28T13:34:14;16.00;99.90
7232;DHT22;3657;49.630;11.018;2022-09-28T13:37:08;16.00;99.90
7232;DHT22;3657;49.630;11.018;2022-09-28T13:39:37;15.90;99.90
7232;DHT22;3657;49.630;11.018;2022-09-28T13:42:35;16.00;99.90
7232;DHT22;3657;49.630;11.018;2022-09-28T13:45:17;16.00;99.90
7232;DHT22;3657;49.630;11.018;2022-09-28T13:51:03;16.00;99.90
7232;DHT22;3657;49.630;11.018;2022-09-28T13:53:41;16.00;99.90
7232;DHT22;3657;49.630;11.018;2022-09-28T13:56:26;16.00;99.90
7232;DHT22;3657;49.630;11.018;2022-09-28T13:58:56;16.00;99.90
7232;DHT22;3657;49.630;11.018;2022-09-28T14:01:28;16.00;99.90
7232;DHT22;3657;49.630;11.018;2022-09-28T14:04:10;16.00;99.90
7232;DHT22;3657;49.630;11.018;2022-09-28T14:06:40;15.90;99.90
7232;DHT22;3657;49.630;11.018;2022-09-28T14:09:24;15.90;99.90
7232;DHT22;3657;49.630;11.018;2022-09-28T14:11:59;15.80;99.90
7232;DHT22;3657;49.630;11.018;2022-09-28T14:14:43;15.80;99.90
7232;DHT22;3657;49.630;11.018;2022-09-28T14:20:16;15.80;99.90
7232;DHT22;3657;49.630;11.018;2022-09-28T14:25:42;15.60;99.90
7232;DHT22;3657;49.630;11.018;2022-09-28T14:28:26;15.60;99.90
7232;DHT22;3657;49.630;11.018;2022-09-28T14:30:55;15.50;99.90
7232;DHT22;3657;49.630;11.018;2022-09-28T14:33:25;15.50;99.90
7232;DHT22;3657;49.630;11.018;2022-09-28T14:35:55;15.50;99.90
7232;DHT22;3657;49.630;11.018;2022-09-28T14:38:25;15.50;99.90
7232;DHT22;3657;49.630;11.018;2022-09-28T14:41:26;15.50;99.90
7232;DHT22;3657;49.630;11.018;2022-09-28T14:44:05;15.50;99.90
7232;DHT22;3657;49.630;11.018;2022-09-28T14:46:40;15.50;99.90
7232;DHT22;3657;49.630;11.018;2022-09-28T14:52:36;15.50;99.90
7232;DHT22;3657;49.630;11.018;2022-09-28T14:55:10;15.50;99.90
7232;DHT22;3657;49.630;11.018;2022-09-28T14:57:40;15.40;99.90
7232;DHT22;3657;49.630;11.018;2022-09-28T15:00:14;15.40;99.90
7232;DHT22;3657;49.630;11.018;2022-09-28T15:02:47;15.50;99.90
7232;DHT22;3657;49.630;11.018;2022-09-28T15:05:18;15.50;99.90
7232;DHT22;3657;49.630;11.018;2022-09-28T15:07:49;15.60;99.90
7232;DHT22;3657;49.630;11.018;2022-09-28T15:10:29;15.70;99.90
7232;DHT22;3657;49.630;11.018;2022-09-28T15:13:02;15.70;99.90
7232;DHT22;3657;49.630;11.018;2022-09-28T15:15:32;15.60;99.90
7232;DHT22;3657;49.630;11.018;2022-09-28T15:21:07;15.50;99.90
7232;DHT22;3657;49.630;11.018;2022-09-28T15:23:35;15.50;99.90
7232;DHT22;3657;49.630;11.018;2022-09-28T15:26:04;15.40;99.90
7232;DHT22;3657;49.630;11.018;2022-09-28T15:28:35;15.40;99.90
7232;DHT22;3657;49.630;11.018;2022-09-28T15:31:04;15.30;99.90
7232;DHT22;3657;49.630;11.018;2022-09-28T15:33:32;15.20;99.90
7232;DHT22;3657;49.630;11.018;2022-09-28T15:36:19;15.20;99.90
7232;DHT22;3657;49.630;11.018;2022-09-28T15:38:52;15.10;99.90
7232;DHT22;3657;49.630;11.018;2022-09-28T15:41:22;15.10;99.90
7232;DHT22;3657;49.630;11.018;2022-09-28T15:44:18;15.10;99.90
7232;DHT22;3657;49.630;11.018;2022-09-28T15:46:48;15.10;99.90
7232;DHT22;3657;49.630;11.018;2022-09-28T15:49:23;15.10;99.90
7232;DHT22;3657;49.630;11.018;2022-09-28T15:51:52;15.10;99.90
7232;DHT22;3657;49.630;11.018;2022-09-28T15:54:22;15.10;99.90
7232;DHT22;3657;49.630;11.018;2022-09-28T15:56:51;15.00;99.90
7232;DHT22;3657;49.630;11.018;2022-09-28T15:59:26;14.90;99.90
7232;DHT22;3657;49.630;11.018;2022-09-28T16:02:01;14.80;99.90
7232;DHT22;3657;49.630;11.018;2022-09-28T16:04:37;14.70;99.90
7232;DHT22;3657;49.630;11.018;2022-09-28T16:07:17;14.60;99.90
7232;DHT22;3657;49.630;11.018;2022-09-28T16:09:59;14.50;99.90
7232;DHT22;3657;49.630;11.018;2022-09-28T16:12:30;14.50;99.90
7232;DHT22;3657;49.630;11.018;2022-09-28T16:15:03;14.50;99.90
7232;DHT22;3657;49.630;11.018;2022-09-28T16:17:32;14.50;99.90
7232;DHT22;3657;49.630;11.018;2022-09-28T16:20:01;14.50;99.90
7232;DHT22;3657;49.630;11.018;2022-09-28T16:22:29;14.50;99.90
7232;DHT22;3657;49.630;11.018;2022-09-28T16:24:58;14.40;99.90
7232;DHT22;3657;49.630;11.018;2022-09-28T16:27:28;14.40;99.90
7232;DHT22;3657;49.630;11.018;2022-09-28T16:30:13;14.40;99.90
7232;DHT22;3657;49.630;11.018;2022-09-28T16:32:48;14.40;99.90
7232;DHT22;3657;49.630;11.018;2022-09-28T16:35:27;14.40;99.90
7232;DHT22;3657;49.630;11.018;2022-09-28T16:37:59;14.40;99.90
7232;DHT22;3657;49.630;11.018;2022-09-28T16:40:27;14.30;99.90